sensor_id;sensor_type;location;lat;lon;timestamp;pressure;altitude;pressure_sealevel;temperature;humidity
69622;BME280;56841;55.964;37.674;2022-08-01T00:01:05;99778.53;;;16.98;79.79
69622;BME280;56841;55.964;37.674;2022-08-01T00:03:31;99773.59;;;16.95;80.39
69622;BME280;56841;55.964;37.674;2022-08-01T00:05:57;99771.75;;;16.95;80.56
69622;BME280;56841;55.964;37.674;2022-08-01T00:08:22;99776.28;;;16.95;80.84
69622;BME280;56841;55.964;37.674;2022-08-01T00:10:48;99776.09;;;16.96;81.03
69622;BME280;56841;55.964;37.674;2022-08-01T00:13:14;99771.16;;;16.93;81.43
69622;BME280;56841;55.964;37.674;2022-08-01T00:15:40;99779.78;;;16.82;82.48
69622;BME280;56841;55.964;37.674;2022-08-01T00:18:05;99777.50;;;16.79;83.92
69622;BME280;56841;55.964;37.674;2022-08-01T00:20:31;99767.84;;;16.78;85.44
69622;BME280;56841;55.964;37.674;2022-08-01T00:22:57;99771.31;;;16.72;86.01
69622;BME280;56841;55.964;37.674;2022-08-01T00:25:23;99771.31;;;16.72;85.34
69622;BME280;56841;55.964;37.674;2022-08-01T00:27:49;99767.44;;;16.74;84.77
69622;BME280;56841;55.964;37.674;2022-08-01T00:30:15;99765.78;;;16.73;84.03
69622;BME280;56841;55.964;37.674;2022-08-01T00:32:42;99767.63;;;16.66;84.18
69622;BME280;56841;55.964;37.674;2022-08-01T00:35:08;99766.38;;;16.49;83.48
69622;BME280;56841;55.964;37.674;2022-08-01T00:37:33;99767.38;;;16.41;83.73
69622;BME280;56841;55.964;37.674;2022-08-01T00:39:59;99760.19;;;16.35;83.40
69622;BME280;56841;55.964;37.674;2022-08-01T00:42:25;99767.97;;;16.43;82.59
69622;BME280;56841;55.964;37.674;2022-08-01T00:44:50;99770.59;;;16.30;83.02
69622;BME280;56841;55.964;37.674;2022-08-01T00:47:16;99772.22;;;16.18;83.66
69622;BME280;56841;55.964;37.674;2022-08-01T00:49:42;99765.47;;;16.22;83.15
69622;BME280;56841;55.964;37.674;2022-08-01T00:52:08;99775.69;;;16.11;84.67
69622;BME280;56841;55.964;37.674;2022-08-01T00:54:35;99762.75;;;16.08;83.51
69622;BME280;56841;55.964;37.674;2022-08-01T00:57:02;99768.50;;;16.05;82.69
69622;BME280;56841;55.964;37.674;2022-08-01T00:59:28;99763.59;;;16.09;82.71
69622;BME280;56841;55.964;37.674;2022-08-01T01:01:54;99765.63;;;16.00;82.67
69622;BME280;56841;55.964;37.674;2022-08-01T01:04:22;99765.97;;;15.91;82.79
69622;BME280;56841;55.964;37.674;2022-08-01T01:09:48;99770.09;;;15.93;81.72
69622;BME280;56841;55.964;37.674;2022-08-01T01:12:26;99768.00;;;15.88;81.77
69622;BME280;56841;55.964;37.674;2022-08-01T01:17:38;99773.75;;;15.92;82.22
69622;BME280;56841;55.964;37.674;2022-08-01T01:20:05;99760.03;;;15.88;82.77
69622;BME280;56841;55.964;37.674;2022-08-01T01:22:47;99768.19;;;15.80;82.14
69622;BME280;56841;55.964;37.674;2022-08-01T01:30:34;99753.78;;;15.68;83.05
69622;BME280;56841;55.964;37.674;2022-08-01T01:33:03;99755.16;;;15.64;83.14
69622;BME280;56841;55.964;37.674;2022-08-01T01:35:34;99758.22;;;15.61;83.34
69622;BME280;56841;55.964;37.674;2022-08-01T01:38:08;99752.47;;;15.57;82.94
69622;BME280;56841;55.964;37.674;2022-08-01T01:40:36;99751.22;;;15.53;83.43
69622;BME280;56841;55.964;37.674;2022-08-01T01:43:02;99756.13;;;15.50;83.51
69622;BME280;56841;55.964;37.674;2022-08-01T01:45:29;99750.03;;;15.56;83.79
69622;BME280;56841;55.964;37.674;2022-08-01T01:47:56;99753.63;;;15.48;84.52
69622;BME280;56841;55.964;37.674;2022-08-01T01:50:24;99762.25;;;15.50;84.41
69622;BME280;56841;55.964;37.674;2022-08-01T01:52:51;99755.91;;;15.51;84.55
69622;BME280;56841;55.964;37.674;2022-08-01T01:55:19;99753.69;;;15.55;84.47
69622;BME280;56841;55.964;37.674;2022-08-01T01:57:48;99751.16;;;15.40;85.04
69622;BME280;56841;55.964;37.674;2022-08-01T02:00:16;99757.72;;;15.44;85.11
69622;BME280;56841;55.964;37.674;2022-08-01T02:02:42;99760.19;;;15.46;85.10
69622;BME280;56841;55.964;37.674;2022-08-01T02:05:11;99762.66;;;15.47;85.26
69622;BME280;56841;55.964;37.674;2022-08-01T02:07:38;99753.06;;;15.53;85.05
69622;BME280;56841;55.964;37.674;2022-08-01T02:10:05;99762.91;;;15.52;85.01
69622;BME280;56841;55.964;37.674;2022-08-01T02:12:36;99762.47;;;15.55;84.60
69622;BME280;56841;55.964;37.674;2022-08-01T02:15:03;99763.97;;;15.64;83.76
69622;BME280;56841;55.964;37.674;2022-08-01T02:17:30;99756.06;;;15.71;84.32
69622;BME280;56841;55.964;37.674;2022-08-01T02:19:56;99758.53;;;15.79;83.39
69622;BME280;56841;55.964;37.674;2022-08-01T02:22:32;99756.28;;;15.76;83.26
69622;BME280;56841;55.964;37.674;2022-08-01T02:25:31;99746.91;;;15.87;82.85
69622;BME280;56841;55.964;37.674;2022-08-01T02:28:01;99752.28;;;15.94;82.10
69622;BME280;56841;55.964;37.674;2022-08-01T02:30:37;99755.16;;;15.99;82.16
69622;BME280;56841;55.964;37.674;2022-08-01T02:33:12;99749.03;;;16.05;82.01
69622;BME280;56841;55.964;37.674;2022-08-01T02:35:41;99747.00;;;16.14;81.70
69622;BME280;56841;55.964;37.674;2022-08-01T02:38:10;99750.50;;;16.14;81.63
69622;BME280;56841;55.964;37.674;2022-08-01T02:40:39;99748.84;;;16.20;81.58
69622;BME280;56841;55.964;37.674;2022-08-01T02:43:09;99756.44;;;16.23;81.32
69622;BME280;56841;55.964;37.674;2022-08-01T02:45:39;99754.84;;;16.28;81.01
69622;BME280;56841;55.964;37.674;2022-08-01T02:48:12;99755.03;;;16.33;81.90
69622;BME280;56841;55.964;37.674;2022-08-01T02:50:42;99754.25;;;16.46;81.56
69622;BME280;56841;55.964;37.674;2022-08-01T02:53:09;99755.72;;;16.55;80.48
69622;BME280;56841;55.964;37.674;2022-08-01T02:55:38;99752.44;;;16.60;79.68
69622;BME280;56841;55.964;37.674;2022-08-01T02:58:06;99758.16;;;16.57;79.65
69622;BME280;56841;55.964;37.674;2022-08-01T03:00:33;99758.78;;;16.59;81.50
69622;BME280;56841;55.964;37.674;2022-08-01T03:03:01;99753.25;;;16.61;80.34
69622;BME280;56841;55.964;37.674;2022-08-01T03:05:27;99758.81;;;16.66;80.01
69622;BME280;56841;55.964;37.674;2022-08-01T03:07:55;99753.06;;;16.69;79.47
69622;BME280;56841;55.964;37.674;2022-08-01T03:10:22;99759.63;;;16.73;78.79
69622;BME280;56841;55.964;37.674;2022-08-01T03:12:50;99761.50;;;16.79;79.07
69622;BME280;56841;55.964;37.674;2022-08-01T03:15:18;99758.84;;;16.79;79.45
69622;BME280;56841;55.964;37.674;2022-08-01T03:17:47;99759.44;;;16.74;78.31
69622;BME280;56841;55.964;37.674;2022-08-01T03:20:17;99755.31;;;16.72;78.42
69622;BME280;56841;55.964;37.674;2022-08-01T03:22:44;99763.91;;;16.67;79.24
69622;BME280;56841;55.964;37.674;2022-08-01T03:25:13;99758.97;;;16.57;80.03
69622;BME280;56841;55.964;37.674;2022-08-01T03:27:42;99762.91;;;16.55;81.03
69622;BME280;56841;55.964;37.674;2022-08-01T03:30:09;99763.88;;;16.47;80.66
69622;BME280;56841;55.964;37.674;2022-08-01T03:32:36;99754.06;;;16.61;81.84
69622;BME280;56841;55.964;37.674;2022-08-01T03:35:02;99755.50;;;16.70;80.72
69622;BME280;56841;55.964;37.674;2022-08-01T03:37:42;99755.16;;;16.80;80.97
69622;BME280;56841;55.964;37.674;2022-08-01T03:40:17;99746.94;;;16.88;80.51
69622;BME280;56841;55.964;37.674;2022-08-01T03:42:48;99744.47;;;16.93;81.31
69622;BME280;56841;55.964;37.674;2022-08-01T03:45:25;99743.84;;;16.98;80.24
69622;BME280;56841;55.964;37.674;2022-08-01T03:47:59;99748.78;;;17.08;79.78
69622;BME280;56841;55.964;37.674;2022-08-01T03:50:27;99749.81;;;17.07;79.64
69622;BME280;56841;55.964;37.674;2022-08-01T03:52:54;99756.97;;;17.19;80.65
69622;BME280;56841;55.964;37.674;2022-08-01T03:55:22;99746.91;;;17.28;78.58
69622;BME280;56841;55.964;37.674;2022-08-01T03:57:50;99756.34;;;17.37;78.59
69622;BME280;56841;55.964;37.674;2022-08-01T04:00:16;99749.31;;;17.43;77.70
69622;BME280;56841;55.964;37.674;2022-08-01T04:02:46;99749.31;;;17.49;77.41
69622;BME280;56841;55.964;37.674;2022-08-01T04:05:12;99749.53;;;17.55;77.29
69622;BME280;56841;55.964;37.674;2022-08-01T04:07:38;99744.56;;;17.65;77.19
69622;BME280;56841;55.964;37.674;2022-08-01T04:10:09;99745.75;;;17.75;76.60
69622;BME280;56841;55.964;37.674;2022-08-01T04:12:34;99747.19;;;17.85;76.66
69622;BME280;56841;55.964;37.674;2022-08-01T04:15:02;99747.56;;;17.95;76.28
69622;BME280;56841;55.964;37.674;2022-08-01T04:17:30;99746.50;;;18.03;75.97
69622;BME280;56841;55.964;37.674;2022-08-01T04:19:55;99751.16;;;18.14;75.23
69622;BME280;56841;55.964;37.674;2022-08-01T04:22:21;99754.19;;;18.24;74.12
69622;BME280;56841;55.964;37.674;2022-08-01T04:24:49;99756.00;;;18.30;73.31
69622;BME280;56841;55.964;37.674;2022-08-01T04:27:34;99748.94;;;18.42;73.33
69622;BME280;56841;55.964;37.674;2022-08-01T04:30:01;99761.84;;;18.52;73.99
69622;BME280;56841;55.964;37.674;2022-08-01T04:32:32;99761.16;;;18.63;72.42
69622;BME280;56841;55.964;37.674;2022-08-01T04:35:00;99749.56;;;18.69;72.05
69622;BME280;56841;55.964;37.674;2022-08-01T04:37:29;99753.22;;;18.82;71.61
69622;BME280;56841;55.964;37.674;2022-08-01T04:39:56;99758.13;;;18.85;70.65
69622;BME280;56841;55.964;37.674;2022-08-01T04:42:22;99749.41;;;18.96;70.03
69622;BME280;56841;55.964;37.674;2022-08-01T04:44:48;99758.13;;;19.10;70.36
69622;BME280;56841;55.964;37.674;2022-08-01T04:47:14;99753.16;;;19.13;68.50
69622;BME280;56841;55.964;37.674;2022-08-01T04:49:41;99752.66;;;19.23;68.32
69622;BME280;56841;55.964;37.674;2022-08-01T04:52:07;99754.41;;;19.36;67.36
69622;BME280;56841;55.964;37.674;2022-08-01T04:54:34;99753.88;;;19.46;66.53
69622;BME280;56841;55.964;37.674;2022-08-01T04:57:06;99756.25;;;19.54;66.08
69622;BME280;56841;55.964;37.674;2022-08-01T04:59:35;99756.44;;;19.59;64.75
69622;BME280;56841;55.964;37.674;2022-08-01T05:02:11;99766.84;;;19.67;64.07
69622;BME280;56841;55.964;37.674;2022-08-01T05:04:38;99757.69;;;19.75;63.32
69622;BME280;56841;55.964;37.674;2022-08-01T05:07:05;99757.19;;;19.84;63.55
69622;BME280;56841;55.964;37.674;2022-08-01T05:09:32;99762.09;;;19.87;62.54
69622;BME280;56841;55.964;37.674;2022-08-01T05:11:59;99753.06;;;20.00;61.52
69622;BME280;56841;55.964;37.674;2022-08-01T05:14:28;99766.06;;;20.15;60.68
69622;BME280;56841;55.964;37.674;2022-08-01T05:16:54;99754.81;;;20.25;60.36
69622;BME280;56841;55.964;37.674;2022-08-01T05:19:20;99755.28;;;20.33;59.08
69622;BME280;56841;55.964;37.674;2022-08-01T05:21:46;99754.97;;;20.42;56.38
69622;BME280;56841;55.964;37.674;2022-08-01T05:24:13;99743.91;;;20.50;55.06
69622;BME280;56841;55.964;37.674;2022-08-01T05:26:39;99749.38;;;20.62;56.68
69622;BME280;56841;55.964;37.674;2022-08-01T05:29:06;99751.44;;;20.71;55.24
69622;BME280;56841;55.964;37.674;2022-08-01T05:31:32;99753.22;;;20.77;53.86
69622;BME280;56841;55.964;37.674;2022-08-01T05:34:01;99740.28;;;20.86;54.67
69622;BME280;56841;55.964;37.674;2022-08-01T05:36:27;99748.81;;;20.95;53.87
69622;BME280;56841;55.964;37.674;2022-08-01T05:38:53;99751.16;;;21.03;51.99
69622;BME280;56841;55.964;37.674;2022-08-01T05:41:19;99752.31;;;21.07;53.37
69622;BME280;56841;55.964;37.674;2022-08-01T05:43:45;99745.91;;;21.20;54.22
69622;BME280;56841;55.964;37.674;2022-08-01T05:46:10;99742.28;;;21.26;51.75
69622;BME280;56841;55.964;37.674;2022-08-01T05:48:36;99746.72;;;21.32;51.30
69622;BME280;56841;55.964;37.674;2022-08-01T05:51:02;99746.16;;;21.42;51.73
69622;BME280;56841;55.964;37.674;2022-08-01T05:53:28;99730.38;;;21.45;49.71
69622;BME280;56841;55.964;37.674;2022-08-01T05:55:54;99735.03;;;21.50;50.25
69622;BME280;56841;55.964;37.674;2022-08-01T05:58:21;99736.09;;;21.61;50.32
69622;BME280;56841;55.964;37.674;2022-08-01T06:00:46;99737.59;;;21.68;48.88
69622;BME280;56841;55.964;37.674;2022-08-01T06:03:12;99736.31;;;21.71;48.52
69622;BME280;56841;55.964;37.674;2022-08-01T06:05:40;99732.97;;;21.81;48.10
69622;BME280;56841;55.964;37.674;2022-08-01T06:08:06;99738.22;;;21.87;48.50
69622;BME280;56841;55.964;37.674;2022-08-01T06:10:32;99739.16;;;21.93;48.54
69622;BME280;56841;55.964;37.674;2022-08-01T06:12:58;99741.22;;;22.03;48.59
69622;BME280;56841;55.964;37.674;2022-08-01T06:15:25;99733.03;;;22.09;48.00
69622;BME280;56841;55.964;37.674;2022-08-01T06:17:50;99741.53;;;22.18;48.78
69622;BME280;56841;55.964;37.674;2022-08-01T06:20:16;99734.13;;;22.25;48.99
69622;BME280;56841;55.964;37.674;2022-08-01T06:22:42;99742.53;;;22.29;48.95
69622;BME280;56841;55.964;37.674;2022-08-01T06:25:08;99736.94;;;22.30;49.37
69622;BME280;56841;55.964;37.674;2022-08-01T06:27:34;99744.84;;;22.37;49.07
69622;BME280;56841;55.964;37.674;2022-08-01T06:30:00;99748.44;;;22.42;48.92
69622;BME280;56841;55.964;37.674;2022-08-01T06:32:26;99744.22;;;22.46;47.22
69622;BME280;56841;55.964;37.674;2022-08-01T06:34:52;99749.13;;;22.50;46.78
69622;BME280;56841;55.964;37.674;2022-08-01T06:37:18;99740.38;;;22.59;48.03
69622;BME280;56841;55.964;37.674;2022-08-01T06:39:44;99750.50;;;22.69;48.16
69622;BME280;56841;55.964;37.674;2022-08-01T06:42:10;99750.50;;;22.69;45.90
69622;BME280;56841;55.964;37.674;2022-08-01T06:44:36;99749.53;;;22.58;46.47
69622;BME280;56841;55.964;37.674;2022-08-01T06:47:01;99743.34;;;22.58;46.47
69622;BME280;56841;55.964;37.674;2022-08-01T06:49:27;99743.91;;;22.60;46.10
69622;BME280;56841;55.964;37.674;2022-08-01T06:51:53;99749.44;;;22.70;46.46
69622;BME280;56841;55.964;37.674;2022-08-01T06:54:19;99744.16;;;22.75;45.80
69622;BME280;56841;55.964;37.674;2022-08-01T06:56:45;99745.88;;;22.81;46.00
69622;BME280;56841;55.964;37.674;2022-08-01T06:59:10;99744.78;;;22.94;44.66
69622;BME280;56841;55.964;37.674;2022-08-01T07:01:36;99753.41;;;22.96;45.11
69622;BME280;56841;55.964;37.674;2022-08-01T07:04:03;99753.00;;;23.04;45.10
69622;BME280;56841;55.964;37.674;2022-08-01T07:06:28;99751.03;;;23.16;45.45
69622;BME280;56841;55.964;37.674;2022-08-01T07:08:55;99754.34;;;22.90;43.99
69622;BME280;56841;55.964;37.674;2022-08-01T07:11:23;99756.00;;;22.91;45.24
69622;BME280;56841;55.964;37.674;2022-08-01T07:13:49;99755.88;;;22.98;44.89
69622;BME280;56841;55.964;37.674;2022-08-01T07:16:16;99755.66;;;23.21;44.02
69622;BME280;56841;55.964;37.674;2022-08-01T07:18:42;99756.06;;;23.30;43.56
69622;BME280;56841;55.964;37.674;2022-08-01T07:21:08;99755.75;;;23.48;43.55
69622;BME280;56841;55.964;37.674;2022-08-01T07:23:34;99747.50;;;23.55;43.69
69622;BME280;56841;55.964;37.674;2022-08-01T07:26:00;99746.78;;;23.59;43.88
69622;BME280;56841;55.964;37.674;2022-08-01T07:28:30;99751.66;;;23.62;43.60
69622;BME280;56841;55.964;37.674;2022-08-01T07:30:56;99745.47;;;23.45;43.92
69622;BME280;56841;55.964;37.674;2022-08-01T07:33:21;99755.47;;;23.67;43.97
69622;BME280;56841;55.964;37.674;2022-08-01T07:35:48;99748.09;;;23.79;44.27
69622;BME280;56841;55.964;37.674;2022-08-01T07:38:14;99750.38;;;23.87;44.36
69622;BME280;56841;55.964;37.674;2022-08-01T07:40:45;99741.78;;;23.90;43.71
69622;BME280;56841;55.964;37.674;2022-08-01T07:43:11;99747.50;;;23.94;44.89
69622;BME280;56841;55.964;37.674;2022-08-01T07:45:36;99751.53;;;23.96;44.01
69622;BME280;56841;55.964;37.674;2022-08-01T07:48:06;99741.91;;;24.00;43.52
69622;BME280;56841;55.964;37.674;2022-08-01T07:50:32;99739.31;;;24.10;43.41
69622;BME280;56841;55.964;37.674;2022-08-01T07:52:59;99736.16;;;24.19;42.50
69622;BME280;56841;55.964;37.674;2022-08-01T07:55:25;99746.97;;;24.24;43.68
69622;BME280;56841;55.964;37.674;2022-08-01T07:57:51;99737.03;;;24.24;44.11
69622;BME280;56841;55.964;37.674;2022-08-01T08:00:17;99736.19;;;24.24;43.32
69622;BME280;56841;55.964;37.674;2022-08-01T08:02:43;99737.94;;;24.35;42.29
69622;BME280;56841;55.964;37.674;2022-08-01T08:05:11;99732.03;;;24.38;41.83
69622;BME280;56841;55.964;37.674;2022-08-01T08:07:37;99730.50;;;24.47;41.49
69622;BME280;56841;55.964;37.674;2022-08-01T08:10:04;99734.09;;;24.53;41.33
69622;BME280;56841;55.964;37.674;2022-08-01T08:12:31;99729.28;;;24.60;41.38
69622;BME280;56841;55.964;37.674;2022-08-01T08:14:57;99725.81;;;24.65;40.64
69622;BME280;56841;55.964;37.674;2022-08-01T08:17:27;99727.41;;;24.61;41.54
69622;BME280;56841;55.964;37.674;2022-08-01T08:19:53;99721.47;;;24.64;41.43
69622;BME280;56841;55.964;37.674;2022-08-01T08:22:19;99727.44;;;24.66;40.98
69622;BME280;56841;55.964;37.674;2022-08-01T08:24:45;99719.66;;;24.69;40.86
69622;BME280;56841;55.964;37.674;2022-08-01T08:27:10;99731.28;;;24.75;40.92
69622;BME280;56841;55.964;37.674;2022-08-01T08:29:36;99727.25;;;24.77;39.80
69622;BME280;56841;55.964;37.674;2022-08-01T08:32:03;99731.19;;;24.59;39.23
69622;BME280;56841;55.964;37.674;2022-08-01T08:34:29;99719.66;;;24.69;40.32
69622;BME280;56841;55.964;37.674;2022-08-01T08:36:56;99721.69;;;24.89;39.58
69622;BME280;56841;55.964;37.674;2022-08-01T08:39:23;99723.63;;;24.99;40.35
69622;BME280;56841;55.964;37.674;2022-08-01T08:41:49;99714.50;;;25.05;41.02
69622;BME280;56841;55.964;37.674;2022-08-01T08:44:16;99711.19;;;25.30;39.88
69622;BME280;56841;55.964;37.674;2022-08-01T08:46:46;99716.75;;;25.13;38.80
69622;BME280;56841;55.964;37.674;2022-08-01T08:49:16;99707.34;;;25.26;38.88
69622;BME280;56841;55.964;37.674;2022-08-01T08:51:43;99707.28;;;25.16;39.39
69622;BME280;56841;55.964;37.674;2022-08-01T08:54:12;99705.25;;;25.38;38.02
69622;BME280;56841;55.964;37.674;2022-08-01T08:56:40;99713.97;;;25.50;37.61
69622;BME280;56841;55.964;37.674;2022-08-01T08:59:06;99713.44;;;25.53;36.98
69622;BME280;56841;55.964;37.674;2022-08-01T09:01:32;99707.56;;;25.72;35.86
69622;BME280;56841;55.964;37.674;2022-08-01T09:04:02;99709.31;;;25.98;35.84
69622;BME280;56841;55.964;37.674;2022-08-01T09:06:29;99705.53;;;26.10;36.87
69622;BME280;56841;55.964;37.674;2022-08-01T09:08:56;99706.34;;;26.10;36.91
69622;BME280;56841;55.964;37.674;2022-08-01T09:11:23;99700.88;;;25.90;38.53
69622;BME280;56841;55.964;37.674;2022-08-01T09:14:21;99706.47;;;25.68;38.63
69622;BME280;56841;55.964;37.674;2022-08-01T09:17:04;99698.13;;;25.74;38.27
69622;BME280;56841;55.964;37.674;2022-08-01T09:19:38;99694.34;;;25.75;39.71
69622;BME280;56841;55.964;37.674;2022-08-01T09:22:07;99699.72;;;25.70;39.12
69622;BME280;56841;55.964;37.674;2022-08-01T09:24:33;99696.75;;;25.77;37.94
69622;BME280;56841;55.964;37.674;2022-08-01T09:27:00;99699.28;;;25.89;38.97
69622;BME280;56841;55.964;37.674;2022-08-01T09:29:28;99692.00;;;26.05;37.15
69622;BME280;56841;55.964;37.674;2022-08-01T09:31:55;99693.38;;;26.28;37.22
69622;BME280;56841;55.964;37.674;2022-08-01T09:34:29;99690.44;;;26.29;36.49
69622;BME280;56841;55.964;37.674;2022-08-01T09:37:01;99691.53;;;26.64;36.65
69622;BME280;56841;55.964;37.674;2022-08-01T09:39:32;99685.81;;;26.86;36.12
69622;BME280;56841;55.964;37.674;2022-08-01T09:42:01;99684.72;;;26.92;36.19
69622;BME280;56841;55.964;37.674;2022-08-01T09:47:03;99686.63;;;26.91;35.22
69622;BME280;56841;55.964;37.674;2022-08-01T09:49:34;99687.19;;;26.48;35.46
69622;BME280;56841;55.964;37.674;2022-08-01T09:52:18;99686.66;;;26.51;35.28
69622;BME280;56841;55.964;37.674;2022-08-01T09:54:53;99678.22;;;26.83;34.55
69622;BME280;56841;55.964;37.674;2022-08-01T09:57:20;99685.00;;;26.44;34.59
69622;BME280;56841;55.964;37.674;2022-08-01T09:59:49;99673.38;;;26.49;35.19
69622;BME280;56841;55.964;37.674;2022-08-01T10:02:36;99683.41;;;26.49;35.19
69622;BME280;56841;55.964;37.674;2022-08-01T10:05:04;99677.47;;;26.57;35.37
69622;BME280;56841;55.964;37.674;2022-08-01T10:07:31;99671.22;;;26.61;35.21
69622;BME280;56841;55.964;37.674;2022-08-01T10:10:14;99672.59;;;26.54;35.34
69622;BME280;56841;55.964;37.674;2022-08-01T10:12:44;99671.50;;;26.65;35.40
69622;BME280;56841;55.964;37.674;2022-08-01T10:15:10;99673.38;;;26.64;35.27
69622;BME280;56841;55.964;37.674;2022-08-01T10:17:38;99671.47;;;26.60;35.54
69622;BME280;56841;55.964;37.674;2022-08-01T10:20:05;99672.31;;;26.60;35.82
69622;BME280;56841;55.964;37.674;2022-08-01T10:22:31;99674.19;;;26.55;36.32
69622;BME280;56841;55.964;37.674;2022-08-01T10:25:03;99673.13;;;26.61;35.27
69622;BME280;56841;55.964;37.674;2022-08-01T10:27:32;99674.72;;;26.72;35.70
69622;BME280;56841;55.964;37.674;2022-08-01T10:30:02;99675.25;;;26.94;35.69
69622;BME280;56841;55.964;37.674;2022-08-01T10:32:32;99668.16;;;27.14;36.02
69622;BME280;56841;55.964;37.674;2022-08-01T10:34:59;99668.72;;;27.01;34.64
69622;BME280;56841;55.964;37.674;2022-08-01T10:37:25;99660.59;;;27.06;36.77
69622;BME280;56841;55.964;37.674;2022-08-01T10:39:53;99666.53;;;27.23;36.27
69622;BME280;56841;55.964;37.674;2022-08-01T10:42:18;99663.28;;;27.16;34.46
69622;BME280;56841;55.964;37.674;2022-08-01T10:44:45;99670.88;;;27.09;34.37
69622;BME280;56841;55.964;37.674;2022-08-01T10:47:18;99661.94;;;27.08;35.53
69622;BME280;56841;55.964;37.674;2022-08-01T10:49:51;99664.38;;;27.00;35.23
69622;BME280;56841;55.964;37.674;2022-08-01T10:52:20;99651.44;;;26.56;34.47
69622;BME280;56841;55.964;37.674;2022-08-01T10:54:46;99663.91;;;26.52;35.01
69622;BME280;56841;55.964;37.674;2022-08-01T10:57:13;99658.50;;;26.52;35.82
69622;BME280;56841;55.964;37.674;2022-08-01T10:59:50;99661.75;;;26.64;35.58
69622;BME280;56841;55.964;37.674;2022-08-01T11:02:33;99656.59;;;26.37;35.72
69622;BME280;56841;55.964;37.674;2022-08-01T11:07:48;99650.91;;;26.64;35.35
69622;BME280;56841;55.964;37.674;2022-08-01T11:10:41;99657.66;;;26.46;35.48
69622;BME280;56841;55.964;37.674;2022-08-01T11:13:10;99651.16;;;26.62;36.51
69622;BME280;56841;55.964;37.674;2022-08-01T11:15:38;99648.47;;;26.62;35.70
69622;BME280;56841;55.964;37.674;2022-08-01T11:20:57;99647.41;;;26.48;35.88
69622;BME280;56841;55.964;37.674;2022-08-01T11:23:24;99640.06;;;26.43;35.05
69622;BME280;56841;55.964;37.674;2022-08-01T11:28:21;99644.38;;;26.70;35.15
69622;BME280;56841;55.964;37.674;2022-08-01T11:36:17;99633.75;;;27.20;34.81
69622;BME280;56841;55.964;37.674;2022-08-01T11:38:45;99631.34;;;26.92;34.21
69622;BME280;56841;55.964;37.674;2022-08-01T11:41:28;99628.38;;;26.89;33.61
69622;BME280;56841;55.964;37.674;2022-08-01T11:52:31;99622.91;;;27.20;33.63
69622;BME280;56841;55.964;37.674;2022-08-01T11:57:30;99624.16;;;27.37;33.07
69622;BME280;56841;55.964;37.674;2022-08-01T11:59:59;99618.22;;;27.90;32.73
69622;BME280;56841;55.964;37.674;2022-08-01T12:02:26;99619.91;;;28.78;32.43
69622;BME280;56841;55.964;37.674;2022-08-01T12:05:03;99611.47;;;30.41;29.82
69622;BME280;56841;55.964;37.674;2022-08-01T12:07:31;99611.56;;;32.11;27.95
69622;BME280;56841;55.964;37.674;2022-08-01T12:12:31;99599.31;;;33.93;26.28
69622;BME280;56841;55.964;37.674;2022-08-01T12:14:59;99602.53;;;34.22;25.60
69622;BME280;56841;55.964;37.674;2022-08-01T12:17:39;99602.63;;;34.42;26.07
69622;BME280;56841;55.964;37.674;2022-08-01T12:20:08;99590.25;;;33.32;25.30
69622;BME280;56841;55.964;37.674;2022-08-01T12:22:35;99599.75;;;32.46;26.10
69622;BME280;56841;55.964;37.674;2022-08-01T12:25:12;99595.28;;;32.28;26.43
69622;BME280;56841;55.964;37.674;2022-08-01T12:27:41;99596.88;;;32.51;26.42
69622;BME280;56841;55.964;37.674;2022-08-01T12:30:09;99591.69;;;32.19;27.17
69622;BME280;56841;55.964;37.674;2022-08-01T12:32:37;99602.97;;;30.89;28.41
69622;BME280;56841;55.964;37.674;2022-08-01T12:35:10;99592.59;;;30.45;28.88
69622;BME280;56841;55.964;37.674;2022-08-01T12:37:37;99601.44;;;30.23;28.49
69622;BME280;56841;55.964;37.674;2022-08-01T12:40:12;99587.47;;;30.57;28.62
69622;BME280;56841;55.964;37.674;2022-08-01T12:42:40;99599.81;;;30.68;29.11
69622;BME280;56841;55.964;37.674;2022-08-01T12:45:08;99603.66;;;31.23;29.01
69622;BME280;56841;55.964;37.674;2022-08-01T12:47:38;99594.56;;;31.41;28.15
69622;BME280;56841;55.964;37.674;2022-08-01T12:50:21;99601.63;;;31.56;27.41
69622;BME280;56841;55.964;37.674;2022-08-01T12:52:49;99587.22;;;32.45;27.02
69622;BME280;56841;55.964;37.674;2022-08-01T12:55:17;99588.91;;;33.03;25.91
69622;BME280;56841;55.964;37.674;2022-08-01T12:57:45;99581.28;;;34.01;25.53
69622;BME280;56841;55.964;37.674;2022-08-01T13:02:41;99575.38;;;36.64;22.80
69622;BME280;56841;55.964;37.674;2022-08-01T13:05:08;99570.38;;;37.03;22.32
69622;BME280;56841;55.964;37.674;2022-08-01T13:07:41;99573.09;;;37.28;21.52
69622;BME280;56841;55.964;37.674;2022-08-01T13:10:08;99565.94;;;37.39;22.15
69622;BME280;56841;55.964;37.674;2022-08-01T13:12:34;99568.28;;;36.88;21.95
69622;BME280;56841;55.964;37.674;2022-08-01T13:15:20;99562.69;;;37.61;20.54
69622;BME280;56841;55.964;37.674;2022-08-01T13:17:46;99564.31;;;39.17;19.63
69622;BME280;56841;55.964;37.674;2022-08-01T13:20:31;99554.50;;;39.94;18.62
69622;BME280;56841;55.964;37.674;2022-08-01T13:23:17;99554.06;;;39.72;18.96
69622;BME280;56841;55.964;37.674;2022-08-01T13:25:54;99555.59;;;39.70;18.49
69622;BME280;56841;55.964;37.674;2022-08-01T13:28:23;99547.47;;;39.22;19.23
69622;BME280;56841;55.964;37.674;2022-08-01T13:30:58;99546.19;;;39.55;18.65
69622;BME280;56841;55.964;37.674;2022-08-01T13:33:26;99552.88;;;40.58;18.81
69622;BME280;56841;55.964;37.674;2022-08-01T13:35:53;99545.91;;;41.48;18.07
69622;BME280;56841;55.964;37.674;2022-08-01T13:38:20;99544.50;;;41.34;17.71
69622;BME280;56841;55.964;37.674;2022-08-01T13:41:06;99547.19;;;40.74;17.90